Time;durP1;ratioP1;P1;durP2;ratioP2;P2;SDS_P1;SDS_P2;PMS_P1;PMS_P2;Temp;Humidity;BMP_temperature;BMP_pressure;BME280_temperature;BME280_humidity;BME280_pressure;Samples;Min_cycle;Max_cycle;Signal;HPM_P1;HPM_P2
2022/10/12 00:01:06;;;;;;;;;;;18.70;99.90;;;;;;4989087;28;19957;-79
2022/10/12 00:03:33;;;;;;;;;;;18.80;99.90;;;;;;4977835;28;19918;-82
2022/10/12 00:06:19;;;;;;;;;;;18.70;99.90;;;;;;4975649;28;19921;-81
2022/10/12 00:08:47;;;;;;;;;;;18.90;99.90;;;;;;5049891;28;19937;-80
2022/10/12 00:11:19;;;;;;;;;;;18.90;99.90;;;;;;4969326;28;20098;-81
2022/10/12 00:13:46;;;;;;;;;;;18.90;99.90;;;;;;4968830;28;19914;-80
2022/10/12 00:16:13;;;;;;;;;;;19.10;99.90;;;;;;4969526;28;19923;-79
2022/10/12 00:18:40;;;;;;;;;;;19.20;99.90;;;;;;4967799;28;20012;-80
2022/10/12 00:21:09;;;;;;;;;;;19.10;99.90;;;;;;4968126;28;19929;-84
2022/10/12 00:23:36;;;;;;;;;;;19.10;99.90;;;;;;4968444;28;19914;-79
2022/10/12 00:26:07;;;;;;;;;;;18.90;99.90;;;;;;4977323;28;19958;-78
2022/10/12 00:28:34;;;;;;;;;;;18.80;99.90;;;;;;4975466;28;19959;-82
2022/10/12 00:31:01;;;;;;;;;;;18.70;99.90;;;;;;4968408;28;19997;-80
2022/10/12 00:33:28;;;;;;;;;;;18.50;99.90;;;;;;4969334;28;20353;-80
2022/10/12 00:35:55;;;;;;;;;;;18.40;99.90;;;;;;4969453;28;19922;-79
2022/10/12 00:38:21;;;;;;;;;;;18.30;99.90;;;;;;4969414;28;19957;-80
2022/10/12 00:40:48;;;;;;;;;;;18.20;99.90;;;;;;4951418;28;20009;-79
2022/10/12 00:43:36;;;;;;;;;;;18.20;99.90;;;;;;4968898;28;19967;-80
2022/10/12 00:46:05;;;;;;;;;;;18.30;99.90;;;;;;4960780;28;19921;-79
2022/10/12 00:48:32;;;;;;;;;;;18.20;99.90;;;;;;4963249;28;20283;-80
2022/10/12 00:50:59;;;;;;;;;;;18.10;99.90;;;;;;4952490;28;19914;-82
2022/10/12 00:53:29;;;;;;;;;;;17.90;99.90;;;;;;4934611;28;19954;-80
2022/10/12 00:55:58;;;;;;;;;;;17.80;99.90;;;;;;4957376;28;19922;-82
2022/10/12 00:58:25;;;;;;;;;;;17.80;99.90;;;;;;4997762;28;19933;-83
2022/10/12 01:00:52;;;;;;;;;;;17.90;99.90;;;;;;4968920;28;20325;-80
2022/10/12 01:03:20;;;;;;;;;;;18.10;99.90;;;;;;4969553;28;19920;-83
2022/10/12 01:05:47;;;;;;;;;;;18.20;99.90;;;;;;4968752;28;19914;-82
2022/10/12 01:08:14;;;;;;;;;;;18.40;99.90;;;;;;4979387;28;20231;-81
2022/10/12 01:10:40;;;;;;;;;;;18.60;99.90;;;;;;4991899;28;19917;-81
2022/10/12 01:13:07;;;;;;;;;;;18.80;99.90;;;;;;4979439;28;19911;-81
2022/10/12 01:15:36;;;;;;;;;;;18.90;99.90;;;;;;4972442;28;19922;-84
2022/10/12 01:18:08;;;;;;;;;;;19.00;99.90;;;;;;4978293;28;19928;-84
2022/10/12 01:20:40;;;;;;;;;;;19.00;99.90;;;;;;4991309;28;19910;-85
2022/10/12 01:23:07;;;;;;;;;;;19.00;99.90;;;;;;4983152;28;19917;-83
2022/10/12 01:25:57;;;;;;;;;;;19.10;99.90;;;;;;4971856;28;19914;-85
2022/10/12 01:28:45;;;;;;;;;;;18.90;99.90;;;;;;4967299;28;19921;-84
2022/10/12 01:31:18;;;;;;;;;;;18.80;99.90;;;;;;4972866;28;20385;-85
2022/10/12 01:33:50;;;;;;;;;;;18.90;99.90;;;;;;4974084;28;19961;-84
2022/10/12 01:36:36;;;;;;;;;;;19.00;99.90;;;;;;4972652;28;19915;-88
2022/10/12 01:39:06;;;;;;;;;;;19.10;99.90;;;;;;4980460;28;20282;-85
2022/10/12 01:41:39;;;;;;;;;;;19.60;99.90;;;;;;4971764;28;19922;-87
2022/10/12 01:44:06;;;;;;;;;;;20.30;99.90;;;;;;4953814;28;19961;-79
2022/10/12 01:46:32;;;;;;;;;;;21.00;99.90;;;;;;4971594;28;19997;-84
2022/10/12 01:49:00;;;;;;;;;;;21.40;99.90;;;;;;4985977;28;19945;-82
2022/10/12 01:51:31;;;;;;;;;;;21.40;99.90;;;;;;4986778;28;19918;-86
2022/10/12 01:54:00;;;;;;;;;;;21.30;99.90;;;;;;4971822;28;19921;-82
2022/10/12 01:56:41;;;;;;;;;;;21.30;99.90;;;;;;4971561;28;19918;-81
2022/10/12 01:59:20;;;;;;;;;;;21.40;99.90;;;;;;4981131;28;19918;-81
2022/10/12 02:01:52;;;;;;;;;;;21.40;99.90;;;;;;4970701;28;19932;-82
2022/10/12 02:04:33;;;;;;;;;;;21.80;99.90;;;;;;4970809;28;19957;-83
2022/10/12 02:07:02;;;;;;;;;;;21.90;99.90;;;;;;4954227;28;19958;-82
2022/10/12 02:09:31;;;;;;;;;;;21.90;99.90;;;;;;4989916;28;20274;-87
2022/10/12 02:12:01;;;;;;;;;;;21.60;99.90;;;;;;4985534;28;19921;-82
2022/10/12 02:14:30;;;;;;;;;;;21.40;99.90;;;;;;4969864;28;19940;-86
2022/10/12 02:17:03;;;;;;;;;;;21.20;99.90;;;;;;4972024;28;19973;-85
2022/10/12 02:19:32;;;;;;;;;;;21.20;99.90;;;;;;4965066;28;19918;-86
2022/10/12 02:22:00;;;;;;;;;;;21.10;99.90;;;;;;4971164;28;19910;-84
2022/10/12 02:24:28;;;;;;;;;;;21.20;99.90;;;;;;4986620;28;19908;-84
2022/10/12 02:26:56;;;;;;;;;;;21.10;99.90;;;;;;5048354;28;19912;-88
2022/10/12 02:29:26;;;;;;;;;;;21.20;99.90;;;;;;4992280;28;19914;-83
2022/10/12 02:31:55;;;;;;;;;;;21.10;99.90;;;;;;4970828;28;20397;-84
2022/10/12 02:34:28;;;;;;;;;;;21.10;99.90;;;;;;4959867;28;19922;-79
2022/10/12 02:37:10;;;;;;;;;;;20.90;99.90;;;;;;4970688;28;19919;-85
2022/10/12 02:39:37;;;;;;;;;;;20.80;99.90;;;;;;4989656;28;20485;-84
2022/10/12 02:42:07;;;;;;;;;;;20.80;99.90;;;;;;4972322;28;19910;-84
2022/10/12 02:44:35;;;;;;;;;;;20.70;99.90;;;;;;4990127;28;20000;-83
2022/10/12 02:47:03;;;;;;;;;;;20.60;99.90;;;;;;4968677;28;19925;-82
2022/10/12 02:49:31;;;;;;;;;;;20.50;99.90;;;;;;4968724;28;19921;-78
2022/10/12 02:51:58;;;;;;;;;;;20.30;99.90;;;;;;4952238;28;19963;-81
2022/10/12 02:54:24;;;;;;;;;;;20.20;99.90;;;;;;4952540;28;19918;-80
2022/10/12 02:56:51;;;;;;;;;;;20.20;99.90;;;;;;4969233;28;19963;-84
2022/10/12 02:59:18;;;;;;;;;;;20.20;99.90;;;;;;4969319;28;19910;-83
2022/10/12 03:01:45;;;;;;;;;;;20.30;99.90;;;;;;4971258;28;19944;-84
2022/10/12 03:04:12;;;;;;;;;;;20.40;99.90;;;;;;4988501;28;19910;-85
2022/10/12 03:06:39;;;;;;;;;;;20.40;99.90;;;;;;4972262;28;20048;-84
2022/10/12 03:09:06;;;;;;;;;;;20.40;99.90;;;;;;4973248;28;19914;-83
2022/10/12 03:11:32;;;;;;;;;;;20.40;99.90;;;;;;4971221;28;19951;-82
2022/10/12 03:13:59;;;;;;;;;;;20.30;99.90;;;;;;4970705;28;19918;-82
2022/10/12 03:16:26;;;;;;;;;;;20.10;99.90;;;;;;4956293;28;19925;-84
2022/10/12 03:18:52;;;;;;;;;;;20.10;99.90;;;;;;4993693;28;20309;-81
2022/10/12 03:21:19;;;;;;;;;;;20.10;99.90;;;;;;4970277;28;19914;-84
2022/10/12 03:23:46;;;;;;;;;;;20.00;99.90;;;;;;4969630;28;19921;-83
2022/10/12 03:26:12;;;;;;;;;;;20.10;99.90;;;;;;4970183;28;19914;-82
2022/10/12 03:28:39;;;;;;;;;;;20.20;99.90;;;;;;4981194;28;19910;-81
2022/10/12 03:31:05;;;;;;;;;;;20.20;99.90;;;;;;4969239;28;20559;-79
2022/10/12 03:33:32;;;;;;;;;;;20.10;99.90;;;;;;4967408;28;19920;-82
2022/10/12 03:35:59;;;;;;;;;;;20.10;99.90;;;;;;4974149;28;19918;-80
2022/10/12 03:38:25;;;;;;;;;;;20.00;99.90;;;;;;4979246;28;19949;-84
2022/10/12 03:40:56;;;;;;;;;;;20.00;99.90;;;;;;4970102;28;19949;-80
2022/10/12 03:43:23;;;;;;;;;;;20.00;99.90;;;;;;4969667;28;19984;-81
2022/10/12 03:45:51;;;;;;;;;;;20.10;99.90;;;;;;4952345;28;20075;-81
2022/10/12 03:48:18;;;;;;;;;;;20.20;99.90;;;;;;4960775;28;19916;-79
2022/10/12 03:50:48;;;;;;;;;;;20.30;99.90;;;;;;4976026;28;19918;-77
2022/10/12 03:53:15;;;;;;;;;;;20.40;99.90;;;;;;4968667;28;20001;-81
2022/10/12 03:55:41;;;;;;;;;;;20.50;99.90;;;;;;4969722;28;19980;-81
2022/10/12 03:58:08;;;;;;;;;;;20.60;99.90;;;;;;4976724;28;19921;-82
2022/10/12 04:00:35;;;;;;;;;;;20.60;99.90;;;;;;4973420;28;19914;-80
2022/10/12 04:03:01;;;;;;;;;;;20.70;99.90;;;;;;4952374;28;19938;-80
2022/10/12 04:05:29;;;;;;;;;;;20.70;99.90;;;;;;4968669;28;19963;-80
2022/10/12 04:07:55;;;;;;;;;;;20.80;99.90;;;;;;4973385;28;19910;-79
2022/10/12 04:10:22;;;;;;;;;;;20.80;99.90;;;;;;4989531;28;19993;-82
2022/10/12 04:12:49;;;;;;;;;;;20.80;99.90;;;;;;4988742;28;19916;-80
2022/10/12 04:15:18;;;;;;;;;;;20.80;99.90;;;;;;4971711;28;19977;-81
2022/10/12 04:17:45;;;;;;;;;;;20.80;99.90;;;;;;4959377;28;19921;-81
2022/10/12 04:20:15;;;;;;;;;;;20.90;99.80;;;;;;4978868;28;19914;-83
2022/10/12 04:22:42;;;;;;;;;;;20.80;99.70;;;;;;4970669;28;19986;-82
2022/10/12 04:25:09;;;;;;;;;;;20.70;99.90;;;;;;4969548;28;19975;-82
2022/10/12 04:27:36;;;;;;;;;;;20.60;99.90;;;;;;4965246;28;19910;-82
2022/10/12 04:30:03;;;;;;;;;;;20.60;99.90;;;;;;4961006;28;20432;-80
2022/10/12 04:32:30;;;;;;;;;;;20.50;99.90;;;;;;4968742;28;19918;-79
2022/10/12 04:34:56;;;;;;;;;;;20.50;99.90;;;;;;4966223;28;19964;-77
2022/10/12 04:37:23;;;;;;;;;;;20.40;99.90;;;;;;4995455;28;20005;-75
2022/10/12 04:39:49;;;;;;;;;;;20.50;99.90;;;;;;4971805;28;19976;-78
2022/10/12 04:42:16;;;;;;;;;;;20.60;99.90;;;;;;4966120;28;20404;-78
2022/10/12 04:44:43;;;;;;;;;;;20.80;99.90;;;;;;4966277;28;19920;-77
2022/10/12 04:47:09;;;;;;;;;;;20.90;99.90;;;;;;4967257;28;19910;-79
2022/10/12 04:49:36;;;;;;;;;;;21.00;99.90;;;;;;4969379;28;19911;-80
2022/10/12 04:52:03;;;;;;;;;;;21.30;99.90;;;;;;4968649;28;20005;-75
2022/10/12 04:54:31;;;;;;;;;;;21.60;99.90;;;;;;4968635;28;19914;-75
2022/10/12 04:56:58;;;;;;;;;;;21.80;99.30;;;;;;4998892;28;19909;-79
2022/10/12 04:59:25;;;;;;;;;;;21.70;99.50;;;;;;4979918;28;19915;-78
2022/10/12 05:01:53;;;;;;;;;;;21.80;99.80;;;;;;4967410;28;19979;-79
2022/10/12 05:04:19;;;;;;;;;;;21.90;99.90;;;;;;4966286;28;19918;-79
2022/10/12 05:06:46;;;;;;;;;;;21.70;99.90;;;;;;4992739;28;20007;-79
2022/10/12 05:09:12;;;;;;;;;;;21.40;99.60;;;;;;4982768;28;20475;-76
2022/10/12 05:11:39;;;;;;;;;;;21.20;99.60;;;;;;4968132;28;19957;-78
2022/10/12 05:14:06;;;;;;;;;;;21.20;99.70;;;;;;4961232;28;20239;-78
2022/10/12 05:16:32;;;;;;;;;;;21.20;99.80;;;;;;4979664;28;20007;-78
2022/10/12 05:18:59;;;;;;;;;;;21.20;99.50;;;;;;4973216;28;19934;-79
2022/10/12 05:21:26;;;;;;;;;;;21.20;99.40;;;;;;4966019;28;19914;-78
2022/10/12 05:23:52;;;;;;;;;;;21.20;99.00;;;;;;5029045;28;19921;-79
2022/10/12 05:26:19;;;;;;;;;;;21.10;99.40;;;;;;4972104;28;20352;-80
2022/10/12 05:28:46;;;;;;;;;;;21.00;99.20;;;;;;5018448;28;19916;-78
2022/10/12 05:31:12;;;;;;;;;;;20.80;98.80;;;;;;4986156;28;19914;-79
2022/10/12 05:33:39;;;;;;;;;;;20.70;99.10;;;;;;4970889;28;19965;-76
2022/10/12 05:36:06;;;;;;;;;;;20.60;99.30;;;;;;5032167;28;19928;-75
2022/10/12 05:38:32;;;;;;;;;;;20.50;99.60;;;;;;5021072;28;19965;-76
2022/10/12 05:40:59;;;;;;;;;;;20.40;99.70;;;;;;4970229;28;20001;-76
2022/10/12 05:43:25;;;;;;;;;;;20.30;99.90;;;;;;4967639;28;20355;-76
2022/10/12 05:45:52;;;;;;;;;;;20.30;99.90;;;;;;4965923;28;19926;-77
2022/10/12 05:48:19;;;;;;;;;;;20.30;99.80;;;;;;5018265;28;19910;-75
2022/10/12 05:50:45;;;;;;;;;;;20.20;99.80;;;;;;5044590;28;20397;-81
2022/10/12 05:53:12;;;;;;;;;;;20.20;99.80;;;;;;4967001;28;19921;-80
2022/10/12 05:55:39;;;;;;;;;;;20.00;99.90;;;;;;4970489;28;19926;-80
2022/10/12 05:58:05;;;;;;;;;;;20.00;99.90;;;;;;5015421;28;20334;-82
2022/10/12 06:00:32;;;;;;;;;;;19.90;99.90;;;;;;4969269;28;19914;-80
2022/10/12 06:02:58;;;;;;;;;;;19.80;99.90;;;;;;4971492;28;19914;-81
2022/10/12 06:05:25;;;;;;;;;;;19.70;99.90;;;;;;4968083;28;19922;-80
2022/10/12 06:07:52;;;;;;;;;;;19.70;99.90;;;;;;5019609;28;19910;-80
2022/10/12 06:10:18;;;;;;;;;;;19.80;99.90;;;;;;4981723;28;19956;-80
2022/10/12 06:12:45;;;;;;;;;;;19.70;99.90;;;;;;4968336;28;20036;-81
2022/10/12 06:15:12;;;;;;;;;;;19.80;99.90;;;;;;4969590;28;19922;-83
2022/10/12 06:17:38;;;;;;;;;;;19.80;99.90;;;;;;4985621;28;19929;-81
2022/10/12 06:20:05;;;;;;;;;;;19.70;99.60;;;;;;4977608;28;19923;-84
2022/10/12 06:22:32;;;;;;;;;;;19.60;99.60;;;;;;5025238;28;20015;-81
2022/10/12 06:24:58;;;;;;;;;;;19.50;99.90;;;;;;4960543;28;19910;-80
2022/10/12 06:27:25;;;;;;;;;;;19.60;99.80;;;;;;4961034;28;19911;-82
2022/10/12 06:29:55;;;;;;;;;;;19.60;99.80;;;;;;5059224;28;19921;-82
2022/10/12 06:32:21;;;;;;;;;;;19.50;99.90;;;;;;5035039;28;20059;-79
2022/10/12 06:34:48;;;;;;;;;;;19.50;99.90;;;;;;4968813;28;19940;-81
2022/10/12 06:37:15;;;;;;;;;;;19.40;99.90;;;;;;5032037;28;19922;-83
2022/10/12 06:39:41;;;;;;;;;;;19.40;99.90;;;;;;4981268;28;19918;-80
2022/10/12 06:42:09;;;;;;;;;;;19.30;99.90;;;;;;4969714;28;19918;-81
2022/10/12 06:44:36;;;;;;;;;;;19.30;99.90;;;;;;4960192;28;19922;-79
2022/10/12 06:47:03;;;;;;;;;;;19.30;99.90;;;;;;4963099;28;19920;-80
2022/10/12 06:49:29;;;;;;;;;;;19.30;99.90;;;;;;4966099;28;19914;-79
2022/10/12 06:51:56;;;;;;;;;;;19.20;99.90;;;;;;4969100;28;19918;-82
2022/10/12 06:54:23;;;;;;;;;;;19.10;99.90;;;;;;4969188;28;19968;-82
2022/10/12 06:56:49;;;;;;;;;;;19.10;99.90;;;;;;4994495;28;19970;-79
2022/10/12 06:59:17;;;;;;;;;;;19.10;99.90;;;;;;4992098;28;19910;-79
2022/10/12 07:01:44;;;;;;;;;;;18.90;99.90;;;;;;5037076;28;20385;-78
2022/10/12 07:04:11;;;;;;;;;;;18.90;99.90;;;;;;5035494;28;19922;-80
2022/10/12 07:06:38;;;;;;;;;;;18.90;99.90;;;;;;4986727;28;20587;-82
2022/10/12 07:09:04;;;;;;;;;;;18.90;99.90;;;;;;5010463;28;19957;-78
2022/10/12 07:11:31;;;;;;;;;;;18.80;99.90;;;;;;4979238;28;20416;-81
2022/10/12 07:13:58;;;;;;;;;;;18.70;99.90;;;;;;4970719;28;19914;-79
2022/10/12 07:16:24;;;;;;;;;;;18.70;99.90;;;;;;4978515;28;19922;-79
2022/10/12 07:18:51;;;;;;;;;;;18.70;99.90;;;;;;5072409;28;19921;-78
2022/10/12 07:21:24;;;;;;;;;;;18.60;99.90;;;;;;5071874;28;19916;-79
2022/10/12 07:23:52;;;;;;;;;;;18.60;99.90;;;;;;5036308;28;19915;-78
2022/10/12 07:26:18;;;;;;;;;;;18.60;99.90;;;;;;4973817;28;19937;-77
2022/10/12 07:28:46;;;;;;;;;;;18.50;99.90;;;;;;5072230;28;20387;-79
2022/10/12 07:31:13;;;;;;;;;;;18.50;99.90;;;;;;5072232;28;19909;-79
2022/10/12 07:33:39;;;;;;;;;;;18.50;99.90;;;;;;5040142;28;19946;-77
2022/10/12 07:36:06;;;;;;;;;;;18.40;99.90;;;;;;4970428;28;19929;-80
2022/10/12 07:38:33;;;;;;;;;;;18.40;99.90;;;;;;5001519;28;20270;-80
2022/10/12 07:41:01;;;;;;;;;;;18.40;99.90;;;;;;5036683;28;20015;-78
2022/10/12 07:43:28;;;;;;;;;;;18.40;99.90;;;;;;4969838;28;19917;-80
2022/10/12 07:45:58;;;;;;;;;;;18.40;99.90;;;;;;5036073;28;19921;-79
2022/10/12 07:48:24;;;;;;;;;;;18.30;99.90;;;;;;5061358;28;19909;-78
2022/10/12 07:50:51;;;;;;;;;;;18.30;99.90;;;;;;5036361;28;19914;-80
2022/10/12 07:53:17;;;;;;;;;;;18.30;99.90;;;;;;4969630;28;20597;-79
2022/10/12 07:55:44;;;;;;;;;;;18.20;99.90;;;;;;4970498;28;20294;-81
2022/10/12 07:58:11;;;;;;;;;;;18.20;99.90;;;;;;4973773;28;19914;-80
2022/10/12 08:00:39;;;;;;;;;;;18.10;99.90;;;;;;4968883;28;19922;-80
2022/10/12 08:03:06;;;;;;;;;;;18.10;99.90;;;;;;4969439;28;19914;-80
2022/10/12 08:05:32;;;;;;;;;;;18.10;99.90;;;;;;5036449;28;19915;-81
2022/10/12 08:07:59;;;;;;;;;;;18.10;99.90;;;;;;5035639;28;19945;-80
2022/10/12 08:10:26;;;;;;;;;;;18.00;99.90;;;;;;4969834;28;19937;-81
2022/10/12 08:12:53;;;;;;;;;;;18.00;99.90;;;;;;4969863;28;19914;-79
2022/10/12 08:15:19;;;;;;;;;;;18.00;99.90;;;;;;4970049;28;19926;-78
2022/10/12 08:17:46;;;;;;;;;;;17.90;99.90;;;;;;5020090;28;20444;-79
2022/10/12 08:20:12;;;;;;;;;;;17.90;99.90;;;;;;4970280;28;19937;-79
2022/10/12 08:22:39;;;;;;;;;;;17.90;99.90;;;;;;4969443;28;19917;-78
2022/10/12 08:25:06;;;;;;;;;;;17.90;99.90;;;;;;4969491;28;19914;-82
2022/10/12 08:27:33;;;;;;;;;;;17.90;99.90;;;;;;4967672;28;20084;-81
2022/10/12 08:29:59;;;;;;;;;;;17.90;99.90;;;;;;4967844;28;19914;-81
2022/10/12 08:32:26;;;;;;;;;;;17.80;99.90;;;;;;4969695;28;20355;-82
2022/10/12 08:34:53;;;;;;;;;;;17.90;99.90;;;;;;4969778;28;20356;-81
2022/10/12 08:37:19;;;;;;;;;;;17.80;99.90;;;;;;4969569;28;19966;-81
2022/10/12 08:39:46;;;;;;;;;;;17.80;99.90;;;;;;4969032;28;21036;-82
2022/10/12 08:42:31;;;;;;;;;;;17.80;99.90;;;;;;4969339;28;20371;-82
2022/10/12 08:44:57;;;;;;;;;;;17.70;99.90;;;;;;4969729;28;19957;-81
2022/10/12 08:47:41;;;;;;;;;;;17.80;99.90;;;;;;4968548;28;19917;-80
2022/10/12 08:50:14;;;;;;;;;;;17.80;99.90;;;;;;4969149;28;20310;-81
2022/10/12 08:52:46;;;;;;;;;;;17.70;99.90;;;;;;4969206;28;19914;-83
2022/10/12 08:55:48;;;;;;;;;;;17.70;99.90;;;;;;4970069;28;19926;-83
2022/10/12 08:58:17;;;;;;;;;;;17.70;99.90;;;;;;5028479;28;20403;-84
2022/10/12 09:00:50;;;;;;;;;;;17.70;99.90;;;;;;5028371;28;19929;-81
2022/10/12 09:03:28;;;;;;;;;;;17.70;99.90;;;;;;4969305;28;20013;-81
2022/10/12 09:06:14;;;;;;;;;;;17.70;99.90;;;;;;4969101;28;19914;-80
2022/10/12 09:09:07;;;;;;;;;;;17.70;99.90;;;;;;4968716;28;20158;-79
2022/10/12 09:11:51;;;;;;;;;;;17.60;99.90;;;;;;5034485;28;19926;-81
2022/10/12 09:14:44;;;;;;;;;;;17.70;99.90;;;;;;4969101;28;19910;-81
2022/10/12 09:17:23;;;;;;;;;;;17.60;99.90;;;;;;4972276;28;19922;-82
2022/10/12 09:19:53;;;;;;;;;;;17.60;99.90;;;;;;4968637;28;19938;-79
2022/10/12 09:22:20;;;;;;;;;;;17.60;99.90;;;;;;4968406;28;19918;-81
2022/10/12 09:24:49;;;;;;;;;;;17.60;99.90;;;;;;4968756;28;19914;-80
2022/10/12 09:27:19;;;;;;;;;;;17.60;99.90;;;;;;4968334;28;19921;-78
2022/10/12 09:29:50;;;;;;;;;;;17.60;99.90;;;;;;4971415;28;19914;-79
2022/10/12 09:32:28;;;;;;;;;;;17.60;99.90;;;;;;4973083;28;19997;-81
2022/10/12 09:34:56;;;;;;;;;;;17.60;99.90;;;;;;4971921;28;19923;-76
2022/10/12 09:37:24;;;;;;;;;;;17.60;99.90;;;;;;4970585;28;20064;-80
2022/10/12 09:39:51;;;;;;;;;;;17.50;99.90;;;;;;4971230;28;19965;-77
2022/10/12 09:42:18;;;;;;;;;;;17.50;99.90;;;;;;4970074;28;20465;-82
2022/10/12 09:45:07;;;;;;;;;;;17.50;99.90;;;;;;4969632;28;19914;-78
2022/10/12 09:47:34;;;;;;;;;;;17.50;99.90;;;;;;4973867;28;19962;-76
2022/10/12 09:50:02;;;;;;;;;;;17.40;99.90;;;;;;4972127;28;19991;-79
2022/10/12 09:52:30;;;;;;;;;;;17.50;99.90;;;;;;4971708;28;19910;-78
2022/10/12 09:55:02;;;;;;;;;;;17.50;99.90;;;;;;4972077;28;19919;-79
2022/10/12 09:57:48;;;;;;;;;;;17.50;99.90;;;;;;4972857;28;20103;-75
2022/10/12 10:00:31;;;;;;;;;;;17.50;99.90;;;;;;5025637;28;19916;-81
2022/10/12 10:02:59;;;;;;;;;;;17.50;99.90;;;;;;5073219;28;19920;-79
2022/10/12 10:05:26;;;;;;;;;;;17.40;99.90;;;;;;5073399;28;19916;-80
2022/10/12 10:07:52;;;;;;;;;;;17.40;99.90;;;;;;4983775;28;19924;-81
2022/10/12 10:10:21;;;;;;;;;;;17.40;99.90;;;;;;5015375;28;20337;-84
2022/10/12 10:12:48;;;;;;;;;;;17.40;99.90;;;;;;5034236;28;20346;-83
2022/10/12 10:15:20;;;;;;;;;;;17.40;99.90;;;;;;4971216;28;20457;-81
2022/10/12 10:17:48;;;;;;;;;;;17.40;99.90;;;;;;4970941;28;19921;-80
2022/10/12 10:20:23;;;;;;;;;;;17.40;99.90;;;;;;4992312;28;19942;-80
2022/10/12 10:22:50;;;;;;;;;;;17.40;99.90;;;;;;4971512;28;20315;-83
2022/10/12 10:25:20;;;;;;;;;;;17.30;99.90;;;;;;4981252;28;19910;-79
2022/10/12 10:27:49;;;;;;;;;;;17.30;99.90;;;;;;4960250;28;19921;-81
2022/10/12 10:30:16;;;;;;;;;;;17.40;99.90;;;;;;4966402;28;19917;-79
2022/10/12 10:32:43;;;;;;;;;;;17.30;99.90;;;;;;4959794;28;19921;-78
2022/10/12 10:35:13;;;;;;;;;;;17.30;99.90;;;;;;4959630;28;19962;-83
2022/10/12 10:37:44;;;;;;;;;;;17.30;99.90;;;;;;4975701;28;19954;-80
2022/10/12 10:40:27;;;;;;;;;;;17.30;99.90;;;;;;4968442;28;19987;-85
2022/10/12 10:42:55;;;;;;;;;;;17.20;99.90;;;;;;4969356;28;19918;-80
2022/10/12 10:45:27;;;;;;;;;;;17.20;99.90;;;;;;4970278;28;19914;-81
2022/10/12 10:48:00;;;;;;;;;;;17.20;99.90;;;;;;4969239;28;20332;-79
2022/10/12 10:50:27;;;;;;;;;;;17.20;99.90;;;;;;4988060;28;20416;-81
2022/10/12 10:52:58;;;;;;;;;;;17.30;99.90;;;;;;4959756;28;19997;-85
2022/10/12 10:55:34;;;;;;;;;;;17.30;99.90;;;;;;4969587;28;19949;-82
2022/10/12 10:58:19;;;;;;;;;;;17.20;99.90;;;;;;4971145;28;19963;-82
2022/10/12 11:00:47;;;;;;;;;;;17.30;99.90;;;;;;4982313;28;19926;-83
2022/10/12 11:03:21;;;;;;;;;;;17.30;99.90;;;;;;4970414;28;20593;-85
2022/10/12 11:05:59;;;;;;;;;;;17.20;99.90;;;;;;4970973;28;19983;-79
2022/10/12 11:08:28;;;;;;;;;;;17.20;99.90;;;;;;4954445;28;19915;-82
2022/10/12 11:11:01;;;;;;;;;;;17.20;99.90;;;;;;4934369;28;20294;-81
2022/10/12 11:13:28;;;;;;;;;;;17.30;99.90;;;;;;4967629;28;19963;-83
2022/10/12 11:15:54;;;;;;;;;;;17.30;99.90;;;;;;4953547;28;19922;-81
2022/10/12 11:18:31;;;;;;;;;;;17.20;99.90;;;;;;4970671;28;19968;-83
2022/10/12 11:21:00;;;;;;;;;;;17.30;99.90;;;;;;4951333;28;19954;-83
2022/10/12 11:23:30;;;;;;;;;;;17.30;99.90;;;;;;4951248;28;19917;-82
2022/10/12 11:26:00;;;;;;;;;;;17.20;99.90;;;;;;5016267;28;19910;-83
2022/10/12 11:28:29;;;;;;;;;;;17.20;99.90;;;;;;4950577;28;19918;-81
2022/10/12 11:30:56;;;;;;;;;;;17.20;99.90;;;;;;5027120;28;19960;-82
2022/10/12 11:33:26;;;;;;;;;;;17.20;99.90;;;;;;4970219;28;19959;-82
2022/10/12 11:35:53;;;;;;;;;;;17.20;99.90;;;;;;4970161;28;19922;-81
2022/10/12 11:38:21;;;;;;;;;;;17.20;99.90;;;;;;4969726;28;19979;-82
2022/10/12 11:40:47;;;;;;;;;;;17.20;99.90;;;;;;5036500;28;19989;-83
2022/10/12 11:43:37;;;;;;;;;;;17.20;99.90;;;;;;4970230;28;19917;-81
2022/10/12 11:46:07;;;;;;;;;;;17.20;99.90;;;;;;4970113;28;19910;-84
2022/10/12 11:48:40;;;;;;;;;;;17.20;99.90;;;;;;5035544;28;19914;-84
2022/10/12 11:51:06;;;;;;;;;;;17.10;99.90;;;;;;4968851;28;19948;-81
2022/10/12 11:53:51;;;;;;;;;;;17.20;99.90;;;;;;4971285;28;20338;-84
2022/10/12 11:56:24;;;;;;;;;;;17.20;99.90;;;;;;4969190;28;19948;-84
2022/10/12 11:58:52;;;;;;;;;;;17.10;99.90;;;;;;5035767;28;19918;-84
2022/10/12 12:01:19;;;;;;;;;;;17.20;99.90;;;;;;5035574;28;19914;-82
2022/10/12 12:03:46;;;;;;;;;;;17.10;99.90;;;;;;5035122;28;19921;-82
2022/10/12 12:06:31;;;;;;;;;;;17.10;99.90;;;;;;5035594;28;19910;-81
2022/10/12 12:09:04;;;;;;;;;;;17.10;99.90;;;;;;4968951;28;19914;-81
2022/10/12 12:11:32;;;;;;;;;;;17.10;99.90;;;;;;5035570;28;19914;-82
2022/10/12 12:14:17;;;;;;;;;;;17.10;99.90;;;;;;5035654;28;19910;-82
2022/10/12 12:16:44;;;;;;;;;;;17.00;99.90;;;;;;4968831;28;19922;-82
2022/10/12 12:19:13;;;;;;;;;;;17.00;99.90;;;;;;4969214;28;19910;-79
2022/10/12 12:21:58;;;;;;;;;;;17.10;99.90;;;;;;5035387;28;20004;-82
2022/10/12 12:24:24;;;;;;;;;;;17.00;99.90;;;;;;4969134;28;19960;-84
2022/10/12 12:26:51;;;;;;;;;;;17.00;99.90;;;;;;4969117;28;19915;-83
2022/10/12 12:29:24;;;;;;;;;;;17.00;99.90;;;;;;4968726;28;19937;-82
2022/10/12 12:31:55;;;;;;;;;;;17.00;99.90;;;;;;4970303;28;19914;-82
2022/10/12 12:34:22;;;;;;;;;;;17.00;99.90;;;;;;4969235;28;19914;-81
2022/10/12 12:36:50;;;;;;;;;;;17.00;99.90;;;;;;4968851;28;19968;-81
2022/10/12 12:39:22;;;;;;;;;;;16.90;99.90;;;;;;4969191;28;19957;-82
2022/10/12 12:41:56;;;;;;;;;;;17.00;99.90;;;;;;4969196;28;20056;-82
2022/10/12 12:44:43;;;;;;;;;;;17.00;99.90;;;;;;4968460;28;19937;-80
2022/10/12 12:47:10;;;;;;;;;;;17.00;99.90;;;;;;4968179;28;20389;-82
2022/10/12 12:50:08;;;;;;;;;;;17.00;99.90;;;;;;4968717;28;19910;-82
2022/10/12 12:52:38;;;;;;;;;;;17.00;99.90;;;;;;4968880;28;19914;-82
2022/10/12 12:55:05;;;;;;;;;;;17.00;99.90;;;;;;4968752;28;19914;-83
2022/10/12 12:57:50;;;;;;;;;;;16.90;99.90;;;;;;4968743;28;19976;-82
2022/10/12 13:00:22;;;;;;;;;;;16.90;99.90;;;;;;4968660;28;19921;-82
2022/10/12 13:03:07;;;;;;;;;;;16.90;99.90;;;;;;4969135;28;20008;-84
2022/10/12 13:05:52;;;;;;;;;;;16.90;99.90;;;;;;4972072;28;20263;-81
2022/10/12 13:08:38;;;;;;;;;;;16.80;99.90;;;;;;4971898;28;20432;-82
2022/10/12 13:11:22;;;;;;;;;;;16.80;99.90;;;;;;4971940;28;20009;-82
2022/10/12 13:14:21;;;;;;;;;;;16.80;99.90;;;;;;4971526;28;19906;-83
2022/10/12 13:17:02;;;;;;;;;;;16.80;99.90;;;;;;4972117;28;20417;-82
2022/10/12 13:19:29;;;;;;;;;;;16.80;99.90;;;;;;4971602;28;19956;-84
2022/10/12 13:21:55;;;;;;;;;;;16.70;99.90;;;;;;4971870;28;19956;-84
2022/10/12 13:24:33;;;;;;;;;;;16.70;99.90;;;;;;4971888;28;19953;-81
2022/10/12 13:27:20;;;;;;;;;;;16.70;99.90;;;;;;4971771;28;19926;-81
2022/10/12 13:29:58;;;;;;;;;;;16.70;99.90;;;;;;4971994;28;19954;-82
2022/10/12 13:32:40;;;;;;;;;;;16.70;99.90;;;;;;4971989;28;20308;-82
2022/10/12 13:35:16;;;;;;;;;;;16.70;99.90;;;;;;4971290;28;20564;-84
2022/10/12 13:37:43;;;;;;;;;;;16.70;99.90;;;;;;5039013;28;19932;-82
2022/10/12 13:40:29;;;;;;;;;;;16.70;99.90;;;;;;4971994;28;19910;-81
2022/10/12 13:42:55;;;;;;;;;;;16.70;99.90;;;;;;4971041;28;20056;-82
2022/10/12 13:45:22;;;;;;;;;;;16.70;99.90;;;;;;4971928;28;19957;-83
2022/10/12 13:47:49;;;;;;;;;;;16.70;99.90;;;;;;4972100;28;20437;-83
2022/10/12 13:50:19;;;;;;;;;;;16.80;99.90;;;;;;4971281;28;19915;-81
2022/10/12 13:52:54;;;;;;;;;;;16.70;99.90;;;;;;4972545;28;19959;-81
2022/10/12 13:55:25;;;;;;;;;;;16.80;99.90;;;;;;4971913;28;19929;-82
2022/10/12 13:57:52;;;;;;;;;;;16.70;99.90;;;;;;4972059;28;19917;-82
2022/10/12 14:00:21;;;;;;;;;;;16.70;99.90;;;;;;4971262;28;19967;-81
2022/10/12 14:02:58;;;;;;;;;;;16.70;99.90;;;;;;5044975;28;19909;-83
2022/10/12 14:05:26;;;;;;;;;;;16.70;99.90;;;;;;4971820;28;19920;-83
2022/10/12 14:07:54;;;;;;;;;;;16.70;99.90;;;;;;4971566;28;19917;-82
2022/10/12 14:10:32;;;;;;;;;;;16.70;99.90;;;;;;4971633;28;20381;-80
2022/10/12 14:13:00;;;;;;;;;;;16.70;99.90;;;;;;4970835;28;20282;-81
2022/10/12 14:15:29;;;;;;;;;;;16.70;99.90;;;;;;4971179;28;19922;-82
2022/10/12 14:17:56;;;;;;;;;;;16.60;99.90;;;;;;4970798;28;19956;-82
2022/10/12 14:20:37;;;;;;;;;;;16.60;99.90;;;;;;4970528;28;19914;-82
2022/10/12 14:23:12;;;;;;;;;;;16.60;99.90;;;;;;4970708;28;19999;-82
2022/10/12 14:25:49;;;;;;;;;;;16.60;99.90;;;;;;4970726;28;19910;-81
2022/10/12 14:28:34;;;;;;;;;;;16.60;99.90;;;;;;4953233;28;20296;-81
2022/10/12 14:31:01;;;;;;;;;;;16.60;99.90;;;;;;4970590;28;19910;-83
2022/10/12 14:33:29;;;;;;;;;;;16.70;99.90;;;;;;4953142;28;20287;-82